createdAt,value
2016-12-21T00:00:00.994Z,0
2016-12-21T00:01:11.986Z,0
2016-12-21T00:02:22.963Z,0
2016-12-21T00:03:33.953Z,0
2016-12-21T00:04:45.143Z,0
2016-12-21T00:05:56.157Z,0
2016-12-21T00:07:07.343Z,0
2016-12-21T00:08:18.316Z,0
2016-12-21T00:09:29.690Z,0
2016-12-21T00:10:40.879Z,0
2016-12-21T00:11:51.856Z,0
2016-12-21T00:13:02.840Z,0
2016-12-21T00:14:13.818Z,0
2016-12-21T00:15:24.796Z,0
2016-12-21T00:16:35.780Z,0
2016-12-21T00:17:46.769Z,0
2016-12-21T00:18:57.953Z,0
2016-12-21T00:20:09.141Z,0
2016-12-21T00:21:20.328Z,0
2016-12-21T00:22:31.506Z,0
2016-12-21T00:23:42.489Z,0
2016-12-21T00:24:53.676Z,0
2016-12-21T00:26:04.663Z,0
2016-12-21T00:27:15.647Z,0
2016-12-21T00:28:26.640Z,0
2016-12-21T00:29:37.623Z,0
2016-12-21T00:30:48.804Z,0
2016-12-21T00:31:59.782Z,0
2016-12-21T00:33:10.754Z,0
2016-12-21T00:34:21.959Z,0
2016-12-21T00:35:32.947Z,0
2016-12-21T00:36:43.970Z,0
2016-12-21T00:37:54.954Z,0
2016-12-21T00:39:05.939Z,0
2016-12-21T00:40:16.924Z,0
2016-12-21T00:41:27.909Z,0
2016-12-21T00:42:38.888Z,0
2016-12-21T00:43:49.874Z,0
2016-12-21T00:45:00.849Z,0
2016-12-21T00:46:12.032Z,0
2016-12-21T00:47:23.025Z,0
2016-12-21T00:48:34.010Z,0
2016-12-21T00:49:44.995Z,0
2016-12-21T00:50:56.029Z,0
2016-12-21T00:52:07.005Z,0
2016-12-21T00:53:17.988Z,0
2016-12-21T00:54:29.171Z,0
2016-12-21T00:55:40.190Z,0
2016-12-21T00:56:51.168Z,0
2016-12-21T00:58:02.158Z,0
2016-12-21T00:59:13.135Z,0
2016-12-21T01:00:24.159Z,0
2016-12-21T01:01:35.171Z,0
2016-12-21T01:02:46.157Z,0
2016-12-21T01:03:57.137Z,0
2016-12-21T01:05:08.363Z,0
2016-12-21T01:06:19.344Z,0
2016-12-21T01:07:30.324Z,0
2016-12-21T01:08:41.333Z,0
2016-12-21T01:09:52.318Z,0
2016-12-21T01:11:03.350Z,0
2016-12-21T01:12:14.542Z,0
2016-12-21T01:13:25.529Z,0
2016-12-21T01:14:36.512Z,0
2016-12-21T01:15:47.495Z,0
2016-12-21T01:16:58.680Z,0
2016-12-21T01:18:09.673Z,0
2016-12-21T01:19:20.664Z,0
2016-12-21T01:20:31.893Z,0
2016-12-21T01:21:42.910Z,0
2016-12-21T01:22:54.099Z,0
2016-12-21T01:24:05.285Z,0
2016-12-21T01:25:16.261Z,0
2016-12-21T01:26:27.281Z,0
2016-12-21T01:27:38.269Z,0
2016-12-21T01:28:49.251Z,0
2016-12-21T01:30:00.234Z,0
2016-12-21T01:31:11.231Z,0
2016-12-21T01:32:22.224Z,0
2016-12-21T01:33:33.211Z,0
2016-12-21T01:34:44.394Z,0
2016-12-21T01:35:55.380Z,0
2016-12-21T01:37:06.368Z,0
2016-12-21T01:38:17.350Z,0
2016-12-21T01:39:28.370Z,0
2016-12-21T01:40:39.563Z,0
2016-12-21T01:41:50.575Z,0
2016-12-21T01:43:01.562Z,0
2016-12-21T01:44:12.750Z,0
2016-12-21T01:45:23.735Z,0
2016-12-21T01:46:34.724Z,0
2016-12-21T01:47:45.902Z,0
2016-12-21T01:48:57.078Z,0
2016-12-21T01:50:08.519Z,0
2016-12-21T01:51:19.498Z,0
2016-12-21T01:52:30.483Z,0
2016-12-21T01:53:41.467Z,0
2016-12-21T01:54:52.452Z,0
2016-12-21T01:56:03.440Z,0
2016-12-21T01:57:14.435Z,0
2016-12-21T01:58:25.434Z,0
2016-12-21T01:59:36.423Z,0
2016-12-21T02:00:47.430Z,0
2016-12-21T02:01:58.423Z,0
2016-12-21T02:03:09.412Z,0
2016-12-21T02:04:20.395Z,0
2016-12-21T02:05:31.382Z,0
2016-12-21T02:06:42.569Z,0
2016-12-21T02:07:53.552Z,0
2016-12-21T02:09:04.746Z,0
2016-12-21T02:10:15.728Z,0
2016-12-21T02:11:26.704Z,0
2016-12-21T02:12:37.702Z,0
2016-12-21T02:13:48.715Z,0
2016-12-21T02:14:59.727Z,0
2016-12-21T02:16:10.909Z,0
2016-12-21T02:17:21.892Z,0
2016-12-21T02:18:32.885Z,0
2016-12-21T02:19:44.066Z,0
2016-12-21T02:20:55.061Z,0
2016-12-21T02:22:06.253Z,0
2016-12-21T02:23:17.433Z,0
2016-12-21T02:24:28.631Z,0
2016-12-21T02:25:39.661Z,0
2016-12-21T02:26:50.646Z,0
2016-12-21T02:28:01.635Z,0
2016-12-21T02:29:12.621Z,0
2016-12-21T02:30:23.662Z,0
2016-12-21T02:31:34.646Z,0
2016-12-21T02:32:45.649Z,0
2016-12-21T02:33:56.636Z,0
2016-12-21T02:35:07.627Z,0
2016-12-21T02:36:18.618Z,0
2016-12-21T02:37:29.619Z,0
2016-12-21T02:38:40.597Z,0
2016-12-21T02:39:51.793Z,0
2016-12-21T02:41:02.770Z,0
2016-12-21T02:42:13.748Z,0
2016-12-21T02:43:24.743Z,0
2016-12-21T02:44:35.722Z,0
2016-12-21T02:45:46.711Z,0
2016-12-21T02:46:57.905Z,0
2016-12-21T02:48:08.891Z,0
2016-12-21T02:49:19.887Z,0
2016-12-21T02:50:30.870Z,0
2016-12-21T02:51:41.854Z,0
2016-12-21T02:52:52.836Z,0
2016-12-21T02:54:03.825Z,0
2016-12-21T02:55:15.006Z,0
2016-12-21T02:56:25.994Z,0
2016-12-21T02:57:36.984Z,0
2016-12-21T02:58:47.974Z,0
2016-12-21T02:59:58.971Z,0
2016-12-21T03:01:09.965Z,0
2016-12-21T03:02:20.946Z,0
2016-12-21T03:03:31.927Z,0
2016-12-21T03:04:42.920Z,0
2016-12-21T03:05:53.904Z,0
2016-12-21T03:07:04.883Z,0
2016-12-21T03:08:15.862Z,0
2016-12-21T03:09:26.848Z,0
2016-12-21T03:10:37.838Z,0
2016-12-21T03:11:48.824Z,0
2016-12-21T03:12:59.817Z,0
2016-12-21T03:14:11.004Z,0
2016-12-21T03:15:21.984Z,0
2016-12-21T03:16:32.975Z,0
2016-12-21T03:17:43.970Z,0
2016-12-21T03:18:54.977Z,0
2016-12-21T03:20:05.961Z,0
2016-12-21T03:21:16.945Z,0
2016-12-21T03:22:27.951Z,0
2016-12-21T03:23:39.140Z,0
2016-12-21T03:24:50.125Z,0
2016-12-21T03:26:01.112Z,0
2016-12-21T03:27:12.095Z,0
2016-12-21T03:28:23.086Z,0
2016-12-21T03:29:34.273Z,0
2016-12-21T03:30:45.462Z,0
2016-12-21T03:31:56.455Z,0
2016-12-21T03:33:07.448Z,0
2016-12-21T03:34:18.458Z,0
2016-12-21T03:35:29.449Z,0
2016-12-21T03:36:40.435Z,0
2016-12-21T03:37:51.418Z,0
2016-12-21T03:39:02.405Z,0
2016-12-21T03:40:13.589Z,0
2016-12-21T03:41:24.577Z,0
2016-12-21T03:42:35.764Z,0
2016-12-21T03:43:46.951Z,0
2016-12-21T03:44:57.939Z,0
2016-12-21T03:46:08.931Z,0
2016-12-21T03:47:19.919Z,0
2016-12-21T03:48:30.897Z,0
2016-12-21T03:49:41.909Z,0
2016-12-21T03:50:52.886Z,0
2016-12-21T03:52:03.881Z,0
2016-12-21T03:53:14.878Z,0
2016-12-21T03:54:25.868Z,0
2016-12-21T03:55:36.850Z,0
2016-12-21T03:56:47.841Z,0
2016-12-21T03:57:59.023Z,0
2016-12-21T03:59:10.017Z,0
2016-12-21T04:00:21.005Z,0
2016-12-21T04:01:32.001Z,0
2016-12-21T04:02:42.981Z,0
2016-12-21T04:03:53.961Z,0
2016-12-21T04:05:05.196Z,0
2016-12-21T04:06:16.180Z,0
2016-12-21T04:07:27.158Z,0
2016-12-21T04:08:38.543Z,0
2016-12-21T04:09:49.530Z,0
2016-12-21T04:11:00.520Z,0
2016-12-21T04:12:11.500Z,0
2016-12-21T04:13:22.485Z,0
2016-12-21T04:14:33.470Z,0
2016-12-21T04:15:44.453Z,0
2016-12-21T04:16:55.435Z,0
2016-12-21T04:18:06.412Z,0
2016-12-21T04:19:17.401Z,0
2016-12-21T04:20:28.383Z,0
2016-12-21T04:21:39.578Z,0
2016-12-21T04:22:50.556Z,0
2016-12-21T04:24:01.533Z,0
2016-12-21T04:25:12.515Z,0
2016-12-21T04:26:23.516Z,0
2016-12-21T04:27:34.501Z,0
2016-12-21T04:28:45.510Z,0
2016-12-21T04:29:56.698Z,0
2016-12-21T04:31:07.737Z,0
2016-12-21T04:32:18.721Z,0
2016-12-21T04:33:29.897Z,0
2016-12-21T04:34:41.082Z,0
2016-12-21T04:35:52.274Z,0
2016-12-21T04:37:03.307Z,0
2016-12-21T04:38:14.290Z,0
2016-12-21T04:39:25.704Z,0
2016-12-21T04:40:36.695Z,0
2016-12-21T04:41:47.674Z,0
2016-12-21T04:42:58.714Z,0
2016-12-21T04:44:09.696Z,0
2016-12-21T04:45:20.705Z,0
2016-12-21T04:46:31.690Z,0
2016-12-21T04:47:42.884Z,0
2016-12-21T04:48:53.915Z,0
2016-12-21T04:50:04.908Z,0
2016-12-21T04:51:16.085Z,0
2016-12-21T04:52:27.072Z,0
2016-12-21T04:53:38.057Z,0
2016-12-21T04:54:49.094Z,0
2016-12-21T04:56:00.084Z,0
2016-12-21T04:57:11.065Z,0
2016-12-21T04:58:22.050Z,0
2016-12-21T04:59:33.035Z,0
2016-12-21T05:00:44.013Z,0
2016-12-21T05:01:55.000Z,0
2016-12-21T05:03:06.029Z,0
2016-12-21T05:04:17.019Z,0
2016-12-21T05:05:27.998Z,0
2016-12-21T05:06:38.981Z,0
2016-12-21T05:07:49.970Z,0
2016-12-21T05:09:00.952Z,0
2016-12-21T05:10:11.935Z,0
2016-12-21T05:11:22.926Z,0
2016-12-21T05:12:33.934Z,0
2016-12-21T05:13:44.916Z,0
2016-12-21T05:14:55.898Z,0
2016-12-21T05:16:07.080Z,0
2016-12-21T05:17:18.270Z,0
2016-12-21T05:18:29.258Z,0
2016-12-21T05:19:40.245Z,0
2016-12-21T05:20:51.225Z,0
2016-12-21T05:22:02.217Z,0
2016-12-21T05:23:13.204Z,0
2016-12-21T05:24:24.184Z,0
2016-12-21T05:25:35.225Z,0
2016-12-21T05:26:46.206Z,0
2016-12-21T05:27:57.387Z,0
2016-12-21T05:29:08.371Z,0
2016-12-21T05:30:19.560Z,0
2016-12-21T05:31:30.546Z,0
2016-12-21T05:32:41.533Z,0
2016-12-21T05:33:52.515Z,0
2016-12-21T05:35:03.502Z,0
2016-12-21T05:36:14.491Z,0
2016-12-21T05:37:25.476Z,0
2016-12-21T05:38:36.665Z,0
2016-12-21T05:39:47.874Z,0
2016-12-21T05:40:58.887Z,0
2016-12-21T05:42:09.882Z,0
2016-12-21T05:43:20.874Z,0
2016-12-21T05:44:31.862Z,0
2016-12-21T05:45:42.907Z,0
2016-12-21T05:46:53.919Z,0
2016-12-21T05:48:04.902Z,0
2016-12-21T05:49:15.887Z,0
2016-12-21T05:50:26.865Z,0
2016-12-21T05:51:38.048Z,0
2016-12-21T05:52:49.238Z,0
2016-12-21T05:54:00.223Z,0
2016-12-21T05:55:11.204Z,0
2016-12-21T05:56:22.189Z,0
2016-12-21T05:57:33.171Z,0
2016-12-21T05:58:44.161Z,0
2016-12-21T05:59:55.143Z,0
2016-12-21T06:01:06.128Z,0
2016-12-21T06:02:17.113Z,0
2016-12-21T06:03:28.103Z,0
2016-12-21T06:04:39.087Z,0
2016-12-21T06:05:50.076Z,0
2016-12-21T06:07:01.053Z,0
2016-12-21T06:08:12.038Z,0
2016-12-21T06:09:23.252Z,0
2016-12-21T06:10:34.468Z,0
2016-12-21T06:11:45.450Z,0
2016-12-21T06:12:56.641Z,0
2016-12-21T06:14:07.630Z,0
2016-12-21T06:15:18.614Z,0
2016-12-21T06:16:29.590Z,0
2016-12-21T06:17:40.777Z,0
2016-12-21T06:18:51.971Z,0
2016-12-21T06:20:03.036Z,0
2016-12-21T06:21:14.230Z,0
2016-12-21T06:22:25.216Z,0
2016-12-21T06:23:36.204Z,0
2016-12-21T06:24:47.177Z,0
2016-12-21T06:25:58.215Z,0
2016-12-21T06:27:09.190Z,0
2016-12-21T06:28:20.161Z,0
2016-12-21T06:29:31.145Z,0
2016-12-21T06:30:42.533Z,0
2016-12-21T06:31:53.518Z,0
2016-12-21T06:33:04.506Z,0
2016-12-21T06:34:15.492Z,0
2016-12-21T06:35:26.475Z,0
2016-12-21T06:36:37.459Z,0
2016-12-21T06:37:48.440Z,0
2016-12-21T06:38:59.420Z,0
2016-12-21T06:40:10.409Z,0
2016-12-21T06:41:21.390Z,0
2016-12-21T06:42:32.369Z,0
2016-12-21T06:43:43.366Z,0
2016-12-21T06:44:54.349Z,0
2016-12-21T06:46:05.338Z,0
2016-12-21T06:47:16.520Z,4
2016-12-21T06:48:27.504Z,4
2016-12-21T06:49:38.477Z,0
2016-12-21T06:50:49.659Z,4
2016-12-21T06:52:00.648Z,4
2016-12-21T06:53:11.629Z,4
2016-12-21T06:54:22.616Z,0
2016-12-21T06:55:33.794Z,4
2016-12-21T06:56:44.775Z,8
2016-12-21T06:57:55.757Z,4
2016-12-21T06:59:06.938Z,8
2016-12-21T07:00:17.920Z,8
2016-12-21T07:01:28.897Z,8
2016-12-21T07:02:39.899Z,12
2016-12-21T07:03:50.885Z,16
2016-12-21T07:05:01.870Z,16
2016-12-21T07:06:12.863Z,20
2016-12-21T07:07:23.852Z,24
2016-12-21T07:08:34.842Z,28
2016-12-21T07:09:46.022Z,36
2016-12-21T07:10:57.010Z,40
2016-12-21T07:12:07.994Z,44
2016-12-21T07:13:19.178Z,52
2016-12-21T07:14:30.160Z,60
2016-12-21T07:15:41.134Z,68
2016-12-21T07:16:52.107Z,80
2016-12-21T07:18:03.083Z,92
2016-12-21T07:19:14.068Z,104
2016-12-21T07:20:25.112Z,120
2016-12-21T07:21:36.096Z,136
2016-12-21T07:22:47.080Z,152
2016-12-21T07:23:58.075Z,168
2016-12-21T07:25:09.261Z,188
2016-12-21T07:26:20.271Z,212
2016-12-21T07:27:31.256Z,236
2016-12-21T07:28:42.236Z,264
2016-12-21T07:29:53.222Z,296
2016-12-21T07:31:04.204Z,332
2016-12-21T07:32:15.189Z,368
2016-12-21T07:33:26.176Z,408
2016-12-21T07:34:37.192Z,448
2016-12-21T07:35:48.170Z,496
2016-12-21T07:36:59.163Z,544
2016-12-21T07:38:10.143Z,588
2016-12-21T07:39:21.335Z,624
2016-12-21T07:40:32.365Z,660
2016-12-21T07:41:43.347Z,696
2016-12-21T07:42:54.529Z,756
2016-12-21T07:44:05.515Z,832
2016-12-21T07:45:16.519Z,936
2016-12-21T07:46:27.904Z,1040
2016-12-21T07:47:39.086Z,1144
2016-12-21T07:48:50.067Z,1228
2016-12-21T07:50:01.048Z,1316
2016-12-21T07:51:12.032Z,1396
2016-12-21T07:52:23.041Z,1468
2016-12-21T07:53:34.026Z,1540
2016-12-21T07:54:45.013Z,1616
2016-12-21T07:55:56.048Z,1696
2016-12-21T07:57:07.033Z,1780
2016-12-21T07:58:18.041Z,1864
2016-12-21T07:59:29.222Z,1928
2016-12-21T08:00:40.200Z,2044
2016-12-21T08:01:51.180Z,2116
2016-12-21T08:03:02.163Z,2132
2016-12-21T08:04:13.352Z,2132
2016-12-21T08:05:24.337Z,2156
2016-12-21T08:06:35.323Z,2228
2016-12-21T08:07:46.313Z,2308
2016-12-21T08:08:57.299Z,2340
2016-12-21T08:10:08.283Z,2392
2016-12-21T08:11:19.273Z,2568
2016-12-21T08:12:30.257Z,3032
2016-12-21T08:13:41.441Z,3804
2016-12-21T08:14:52.421Z,4160
2016-12-21T08:16:03.605Z,3868
2016-12-21T08:17:14.588Z,3896
2016-12-21T08:18:25.572Z,4128
2016-12-21T08:19:36.555Z,5432
2016-12-21T08:20:47.567Z,6164
2016-12-21T08:21:58.554Z,6268
2016-12-21T08:23:09.536Z,7440
2016-12-21T08:24:20.524Z,7740
2016-12-21T08:25:31.508Z,8056
2016-12-21T08:26:42.486Z,8236
2016-12-21T08:27:53.470Z,8456
2016-12-21T08:29:04.452Z,8840
2016-12-21T08:30:15.645Z,8756
2016-12-21T08:31:26.623Z,10144
2016-12-21T08:32:37.615Z,9316
2016-12-21T08:33:48.794Z,5756
2016-12-21T08:34:59.772Z,5340
2016-12-21T08:36:10.967Z,8368
2016-12-21T08:37:21.961Z,9540
2016-12-21T08:38:32.956Z,9724
2016-12-21T08:39:43.943Z,10500
2016-12-21T08:40:54.928Z,11264
2016-12-21T08:42:05.911Z,12480
2016-12-21T08:43:16.893Z,15360
2016-12-21T08:44:28.282Z,16480
2016-12-21T08:45:39.474Z,15392
2016-12-21T08:46:50.668Z,10960
2016-12-21T08:48:01.864Z,9944
2016-12-21T08:49:13.047Z,10136
2016-12-21T08:50:24.040Z,8012
2016-12-21T08:51:35.031Z,6864
2016-12-21T08:52:46.245Z,6280
2016-12-21T08:53:57.231Z,5824
2016-12-21T08:55:08.263Z,5748
2016-12-21T08:56:19.247Z,6608
2016-12-21T08:57:30.225Z,8388
2016-12-21T08:58:41.207Z,11368
2016-12-21T08:59:52.220Z,13952
2016-12-21T09:01:03.409Z,11636
2016-12-21T09:02:14.392Z,11124
2016-12-21T09:03:25.381Z,11692
2016-12-21T09:04:36.363Z,12760
2016-12-21T09:05:47.357Z,13504
2016-12-21T09:06:58.342Z,14880
2016-12-21T09:08:09.544Z,16256
2016-12-21T09:09:20.532Z,14624
2016-12-21T09:10:31.564Z,10956
2016-12-21T09:11:42.556Z,9604
2016-12-21T09:12:53.539Z,11120
2016-12-21T09:14:04.527Z,11412
2016-12-21T09:15:15.516Z,9568
2016-12-21T09:16:26.497Z,9188
2016-12-21T09:17:37.681Z,9508
2016-12-21T09:18:48.668Z,8736
2016-12-21T09:19:59.652Z,8180
2016-12-21T09:21:10.691Z,8216
2016-12-21T09:22:21.674Z,9384
2016-12-21T09:23:32.673Z,11432
2016-12-21T09:24:43.665Z,12572
2016-12-21T09:25:54.845Z,13484
2016-12-21T09:27:05.892Z,13120
2016-12-21T09:28:16.873Z,8900
2016-12-21T09:29:27.854Z,6980
2016-12-21T09:30:38.838Z,6580
2016-12-21T09:31:49.824Z,6684
2016-12-21T09:33:00.875Z,7224
2016-12-21T09:34:12.264Z,9056
2016-12-21T09:35:23.256Z,13900
2016-12-21T09:36:34.434Z,17408
2016-12-21T09:37:45.618Z,16480
2016-12-21T09:38:56.658Z,16896
2016-12-21T09:40:07.644Z,20832
2016-12-21T09:41:18.831Z,24768
2016-12-21T09:42:29.826Z,28448
2016-12-21T09:43:40.814Z,34816
2016-12-21T09:44:52.050Z,40928
2016-12-21T09:46:03.040Z,44224
2016-12-21T09:47:14.050Z,44704
2016-12-21T09:48:25.033Z,42912
2016-12-21T09:49:36.225Z,39936
2016-12-21T09:50:47.220Z,38240
2016-12-21T09:51:58.207Z,38560
2016-12-21T09:53:09.197Z,38848
2016-12-21T09:54:20.193Z,42400
2016-12-21T09:55:31.191Z,41728
2016-12-21T09:56:42.383Z,41664
2016-12-21T09:57:53.380Z,35872
2016-12-21T09:59:04.372Z,37888
2016-12-21T10:00:15.373Z,36512
2016-12-21T10:01:26.769Z,36032
2016-12-21T10:02:37.767Z,35808
2016-12-21T10:03:48.763Z,38304
2016-12-21T10:04:59.757Z,40896
2016-12-21T10:06:10.802Z,43264
2016-12-21T10:07:21.829Z,42720
2016-12-21T10:08:32.818Z,40800
2016-12-21T10:09:43.816Z,41248
2016-12-21T10:10:54.802Z,43040
2016-12-21T10:12:05.999Z,43840
2016-12-21T10:13:16.989Z,44000
2016-12-21T10:14:27.997Z,43744
2016-12-21T10:15:39.241Z,42176
2016-12-21T10:16:50.442Z,41152
2016-12-21T10:18:01.434Z,36096
2016-12-21T10:19:12.429Z,34240
2016-12-21T10:20:23.629Z,33696
2016-12-21T10:21:34.623Z,29184
2016-12-21T10:22:45.617Z,30656
2016-12-21T10:23:56.622Z,40640
2016-12-21T10:25:07.622Z,40192
2016-12-21T10:26:18.618Z,43360
2016-12-21T10:27:29.610Z,47712
2016-12-21T10:28:40.634Z,47552
2016-12-21T10:29:51.635Z,48416
2016-12-21T10:31:02.639Z,46752
2016-12-21T10:32:13.632Z,46240
2016-12-21T10:33:24.626Z,44480
2016-12-21T10:34:35.626Z,42784
2016-12-21T10:35:46.822Z,41728
2016-12-21T10:36:57.851Z,40928
2016-12-21T10:38:08.858Z,38784
2016-12-21T10:39:20.066Z,38624
2016-12-21T10:40:31.111Z,36480
2016-12-21T10:41:42.121Z,31936
2016-12-21T10:42:53.129Z,29184
2016-12-21T10:44:04.127Z,28096
2016-12-21T10:45:15.323Z,20736
2016-12-21T10:46:26.314Z,15168
2016-12-21T10:47:37.309Z,16768
2016-12-21T10:48:48.304Z,16768
2016-12-21T10:49:59.301Z,19136
2016-12-21T10:51:10.503Z,19424
2016-12-21T10:52:21.505Z,21984
2016-12-21T10:53:32.496Z,27680
2016-12-21T10:54:43.491Z,30720
2016-12-21T10:55:54.537Z,22336
2016-12-21T10:57:05.731Z,17888
2016-12-21T10:58:16.721Z,28416
2016-12-21T10:59:27.714Z,16544
2016-12-21T11:00:38.740Z,11324
2016-12-21T11:01:49.727Z,9780
2016-12-21T11:03:00.925Z,14656
2016-12-21T11:04:12.120Z,26592
2016-12-21T11:05:23.373Z,33536
2016-12-21T11:06:34.572Z,42272
2016-12-21T11:07:45.557Z,40224
2016-12-21T11:08:56.763Z,41984
2016-12-21T11:10:07.783Z,47168
2016-12-21T11:11:18.777Z,41056
2016-12-21T11:12:29.771Z,35584
2016-12-21T11:13:40.754Z,37696
2016-12-21T11:14:51.751Z,39008
2016-12-21T11:16:02.742Z,31680
2016-12-21T11:17:13.954Z,25664
2016-12-21T11:18:24.946Z,16416
2016-12-21T11:19:36.141Z,16224
2016-12-21T11:20:47.134Z,18240
2016-12-21T11:21:58.136Z,11120
2016-12-21T11:23:09.128Z,11912
2016-12-21T11:24:20.144Z,9796
2016-12-21T11:25:31.385Z,8432
2016-12-21T11:26:42.373Z,8864
2016-12-21T11:27:53.363Z,9492
2016-12-21T11:29:04.358Z,10808
2016-12-21T11:30:15.361Z,10676
2016-12-21T11:31:26.364Z,10124
2016-12-21T11:32:37.391Z,10320
2016-12-21T11:33:48.578Z,10624
2016-12-21T11:34:59.558Z,9868
2016-12-21T11:36:10.550Z,10308
2016-12-21T11:37:21.536Z,11900
2016-12-21T11:38:32.536Z,12364
2016-12-21T11:39:43.520Z,12008
2016-12-21T11:40:54.511Z,13228
2016-12-21T11:42:05.504Z,12848
2016-12-21T11:43:16.706Z,12856
2016-12-21T11:44:27.897Z,14704
2016-12-21T11:45:38.890Z,18592
2016-12-21T11:46:49.881Z,18752
2016-12-21T11:48:00.919Z,14988
2016-12-21T11:49:11.898Z,14872
2016-12-21T11:50:22.894Z,15840
2016-12-21T11:51:33.888Z,11780
2016-12-21T11:52:44.881Z,10844
2016-12-21T11:53:55.875Z,16064
2016-12-21T11:55:06.921Z,16320
2016-12-21T11:56:17.914Z,15152
2016-12-21T11:57:29.137Z,15808
2016-12-21T11:58:40.127Z,17056
2016-12-21T11:59:51.118Z,16672
2016-12-21T12:01:02.158Z,14920
2016-12-21T12:02:13.158Z,14320
2016-12-21T12:03:24.147Z,14320
2016-12-21T12:04:35.164Z,12892
2016-12-21T12:05:46.154Z,12228
2016-12-21T12:06:57.424Z,12488
2016-12-21T12:08:08.417Z,11792
2016-12-21T12:09:19.411Z,11256
2016-12-21T12:10:30.611Z,11456
2016-12-21T12:11:41.601Z,11648
2016-12-21T12:12:52.642Z,9776
2016-12-21T12:14:03.832Z,6960
2016-12-21T12:15:14.818Z,6568
2016-12-21T12:16:25.808Z,6040
2016-12-21T12:17:36.796Z,6084
2016-12-21T12:18:48.023Z,8348
2016-12-21T12:19:59.212Z,7576
2016-12-21T12:21:10.409Z,5944
2016-12-21T12:22:21.597Z,5948
2016-12-21T12:23:32.581Z,6064
2016-12-21T12:24:43.622Z,13028
2016-12-21T12:25:54.811Z,20032
2016-12-21T12:27:05.793Z,20800
2016-12-21T12:28:16.981Z,17664
2016-12-21T12:29:27.998Z,17472
2016-12-21T12:30:38.983Z,19584
2016-12-21T12:31:49.982Z,17472
2016-12-21T12:33:00.975Z,17600
2016-12-21T12:34:11.964Z,17312
2016-12-21T12:35:23.036Z,15936
2016-12-21T12:36:34.027Z,16672
2016-12-21T12:37:45.022Z,14248
2016-12-21T12:38:56.010Z,13388
2016-12-21T12:40:07.004Z,17632
2016-12-21T12:41:18.006Z,15360
2016-12-21T12:42:29.194Z,14116
2016-12-21T12:43:40.185Z,12496
2016-12-21T12:44:51.175Z,10900
2016-12-21T12:46:02.165Z,12416
2016-12-21T12:47:13.360Z,11692
2016-12-21T12:48:24.552Z,9472
2016-12-21T12:49:35.545Z,9852
2016-12-21T12:50:46.577Z,10996
2016-12-21T12:51:57.564Z,11300
2016-12-21T12:53:08.563Z,11580
2016-12-21T12:54:19.562Z,10968
2016-12-21T12:55:30.545Z,10100
2016-12-21T12:56:41.538Z,9852
2016-12-21T12:57:52.730Z,10944
2016-12-21T12:59:03.745Z,9876
2016-12-21T13:00:14.722Z,9048
2016-12-21T13:01:25.706Z,8064
2016-12-21T13:02:36.699Z,7908
2016-12-21T13:03:47.697Z,7768
2016-12-21T13:04:58.693Z,8212
2016-12-21T13:06:09.682Z,6660
2016-12-21T13:07:20.668Z,6096
2016-12-21T13:08:31.649Z,7224
2016-12-21T13:09:42.632Z,7276
2016-12-21T13:10:53.620Z,6676
2016-12-21T13:12:04.612Z,5436
2016-12-21T13:13:15.601Z,6060
2016-12-21T13:14:26.590Z,5892
2016-12-21T13:15:37.573Z,5432
2016-12-21T13:16:48.558Z,5320
2016-12-21T13:17:59.543Z,5416
2016-12-21T13:19:10.531Z,6288
2016-12-21T13:20:21.575Z,5832
2016-12-21T13:21:32.571Z,5128
2016-12-21T13:22:43.756Z,5020
2016-12-21T13:23:54.736Z,4932
2016-12-21T13:25:05.728Z,5504
2016-12-21T13:26:16.713Z,4764
2016-12-21T13:27:27.713Z,4072
2016-12-21T13:28:38.694Z,4116
2016-12-21T13:29:49.688Z,4100
2016-12-21T13:31:00.667Z,4072
2016-12-21T13:32:11.662Z,4096
2016-12-21T13:33:22.647Z,4148
2016-12-21T13:34:33.636Z,5656
2016-12-21T13:35:44.631Z,6280
2016-12-21T13:36:55.820Z,5716
2016-12-21T13:38:06.818Z,5828
2016-12-21T13:39:17.807Z,5352
2016-12-21T13:40:28.789Z,5140
2016-12-21T13:41:39.782Z,5748
2016-12-21T13:42:50.778Z,5784
2016-12-21T13:44:01.769Z,4680
2016-12-21T13:45:12.757Z,4600
2016-12-21T13:46:23.754Z,4796
2016-12-21T13:47:34.748Z,4632
2016-12-21T13:48:45.740Z,4604
2016-12-21T13:49:56.730Z,3764
2016-12-21T13:51:07.911Z,3664
2016-12-21T13:52:18.908Z,4016
2016-12-21T13:53:29.901Z,3840
2016-12-21T13:54:40.897Z,3680
2016-12-21T13:55:51.882Z,3332
2016-12-21T13:57:02.865Z,2832
2016-12-21T13:58:13.849Z,2704
2016-12-21T13:59:24.836Z,2660
2016-12-21T14:00:35.821Z,2636
2016-12-21T14:01:47.014Z,2660
2016-12-21T14:02:58.002Z,2856
2016-12-21T14:04:08.993Z,2984
2016-12-21T14:05:19.977Z,2804
2016-12-21T14:06:30.955Z,2776
2016-12-21T14:07:41.943Z,2856
2016-12-21T14:08:52.935Z,2764
2016-12-21T14:10:03.935Z,2668
2016-12-21T14:11:14.917Z,2504
2016-12-21T14:12:25.914Z,2340
2016-12-21T14:13:36.902Z,2336
2016-12-21T14:14:47.887Z,2304
2016-12-21T14:15:58.873Z,2256
2016-12-21T14:17:09.868Z,2152
2016-12-21T14:18:20.865Z,2068
2016-12-21T14:19:31.854Z,2020
2016-12-21T14:20:42.849Z,1960
2016-12-21T14:21:54.033Z,1908
2016-12-21T14:23:05.023Z,1852
2016-12-21T14:24:16.014Z,1792
2016-12-21T14:25:26.999Z,1732
2016-12-21T14:26:38.387Z,1684
2016-12-21T14:27:49.584Z,1624
2016-12-21T14:29:00.574Z,1564
2016-12-21T14:30:11.564Z,1512
2016-12-21T14:31:22.547Z,1476
2016-12-21T14:32:33.737Z,1440
2016-12-21T14:33:44.933Z,1388
2016-12-21T14:34:55.922Z,1328
2016-12-21T14:36:06.914Z,1272
2016-12-21T14:37:17.898Z,1196
2016-12-21T14:38:28.886Z,1136
2016-12-21T14:39:39.880Z,1084
2016-12-21T14:40:50.868Z,1040
2016-12-21T14:42:01.857Z,992
2016-12-21T14:43:12.846Z,956
2016-12-21T14:44:24.026Z,916
2016-12-21T14:45:35.016Z,876
2016-12-21T14:46:46.206Z,840
2016-12-21T14:47:57.195Z,804
2016-12-21T14:49:08.185Z,772
2016-12-21T14:50:19.178Z,732
2016-12-21T14:51:30.208Z,700
2016-12-21T14:52:41.187Z,668
2016-12-21T14:53:52.183Z,640
2016-12-21T14:55:03.374Z,608
2016-12-21T14:56:14.356Z,576
2016-12-21T14:57:25.544Z,544
2016-12-21T14:58:36.719Z,516
2016-12-21T14:59:47.710Z,488
2016-12-21T15:00:58.693Z,464
2016-12-21T15:02:09.877Z,436
2016-12-21T15:03:20.873Z,408
2016-12-21T15:04:32.057Z,384
2016-12-21T15:05:43.045Z,360
2016-12-21T15:06:54.228Z,336
2016-12-21T15:08:05.409Z,316
2016-12-21T15:09:16.405Z,292
2016-12-21T15:10:27.498Z,268
2016-12-21T15:11:38.686Z,248
2016-12-21T15:12:49.677Z,228
2016-12-21T15:14:00.858Z,212
2016-12-21T15:15:11.853Z,192
2016-12-21T15:16:23.040Z,180
2016-12-21T15:17:34.028Z,164
2016-12-21T15:18:45.019Z,152
2016-12-21T15:19:56.205Z,144
2016-12-21T15:21:07.390Z,132
2016-12-21T15:22:18.380Z,116
2016-12-21T15:23:29.366Z,108
2016-12-21T15:24:40.358Z,96
2016-12-21T15:25:51.551Z,88
2016-12-21T15:27:02.545Z,76
2016-12-21T15:28:13.532Z,72
2016-12-21T15:29:24.530Z,60
2016-12-21T15:30:35.573Z,56
2016-12-21T15:31:46.755Z,48
2016-12-21T15:32:58.145Z,40
2016-12-21T15:34:09.133Z,36
2016-12-21T15:35:20.124Z,32
2016-12-21T15:36:31.359Z,28
2016-12-21T15:37:42.552Z,24
2016-12-21T15:38:53.536Z,16
2016-12-21T15:40:04.521Z,16
2016-12-21T15:41:15.507Z,16
2016-12-21T15:42:26.547Z,8
2016-12-21T15:43:37.525Z,8
2016-12-21T15:44:48.518Z,4
2016-12-21T15:45:59.503Z,4
2016-12-21T15:47:10.480Z,4
2016-12-21T15:48:21.521Z,4
2016-12-21T15:49:32.514Z,4
2016-12-21T15:50:43.506Z,0
2016-12-21T15:51:54.487Z,4
2016-12-21T15:53:05.474Z,4
2016-12-21T15:54:16.519Z,0
2016-12-21T15:55:27.502Z,0
2016-12-21T15:56:38.487Z,0
2016-12-21T15:57:49.478Z,0
2016-12-21T15:59:00.461Z,0
2016-12-21T16:00:11.645Z,0
2016-12-21T16:01:22.643Z,0
2016-12-21T16:02:33.627Z,0
2016-12-21T16:03:44.807Z,0
2016-12-21T16:04:55.791Z,0
2016-12-21T16:06:07.014Z,0
2016-12-21T16:07:18.208Z,0
2016-12-21T16:08:29.194Z,0
2016-12-21T16:09:40.188Z,0
2016-12-21T16:10:51.171Z,0
2016-12-21T16:12:02.359Z,0
2016-12-21T16:13:13.556Z,0
2016-12-21T16:14:24.747Z,0
2016-12-21T16:15:35.732Z,0
2016-12-21T16:16:46.719Z,0
2016-12-21T16:17:57.701Z,0
2016-12-21T16:19:08.690Z,0
2016-12-21T16:20:19.677Z,0
2016-12-21T16:21:30.863Z,0
2016-12-21T16:22:42.050Z,0
2016-12-21T16:23:53.232Z,0
2016-12-21T16:25:04.291Z,0
2016-12-21T16:26:15.305Z,0
2016-12-21T16:27:26.290Z,0
2016-12-21T16:28:37.271Z,0
2016-12-21T16:29:48.256Z,0